CSN3999 ZGGG-ZBAD
Flight info
| Callsign | CSN3999 |
|---|---|
| Flight time | 2h 30m |
| Altitude | 391 |
| Route | MIKIP1 MIKIP A461 BUBDA W56 ORODO W62 TEKIL G212 BELAX BELA5L |
| Aircraft | A388/J-SADE2E3FGHIJ3J4J5M1RWXYZ/LB1D1 |
Departure
| Time | 2026-04-25 08:22 |
|---|---|
| Airport | Guangzhou Baiyun International Airport (ZGGG) |
Arrival
| Time | 2026-04-25 10:52 |
|---|---|
| Airport | Beijing Daxing International Airport (ZBAD) |
| Time | Latitude | Longitude | Altitude | Speed | Heading |
|---|---|---|---|---|---|
| 2026-04-25 07:52 | 23.40169 | 113.30229 | 63 ft | 0 kts | 194° |
| 2026-04-25 08:01 | 23.40170 | 113.30230 | 63 ft | 2 kts | 194° |
| 2026-04-25 08:02 | 23.40195 | 113.30237 | 54 ft | 4 kts | 194° |
| 2026-04-25 08:02 | 23.40217 | 113.30242 | 54 ft | 4 kts | 181° |
| 2026-04-25 08:02 | 23.40239 | 113.30235 | 54 ft | 4 kts | 126° |
| 2026-04-25 08:02 | 23.40250 | 113.30209 | 54 ft | 4 kts | 104° |
| 2026-04-25 08:03 | 23.40252 | 113.30201 | 54 ft | 3 kts | 104° |
| 2026-04-25 08:05 | 23.40246 | 113.30225 | 54 ft | 6 kts | 103° |
| 2026-04-25 08:06 | 23.40232 | 113.30292 | 56 ft | 11 kts | 103° |
| 2026-04-25 08:06 | 23.40256 | 113.30369 | 54 ft | 13 kts | 46° |
| 2026-04-25 08:06 | 23.40329 | 113.30448 | 54 ft | 14 kts | 45° |
| 2026-04-25 08:06 | 23.40360 | 113.30499 | 55 ft | 7 kts | 92° |
| 2026-04-25 08:07 | 23.40348 | 113.30568 | 60 ft | 12 kts | 105° |
| 2026-04-25 08:07 | 23.40324 | 113.30668 | 59 ft | 15 kts | 104° |
| 2026-04-25 08:07 | 23.40300 | 113.30771 | 60 ft | 3 kts | 103° |
| 2026-04-25 08:07 | 23.40290 | 113.30818 | 57 ft | 9 kts | 106° |
| 2026-04-25 08:08 | 23.40248 | 113.30853 | 58 ft | 9 kts | 181° |
| 2026-04-25 08:08 | 23.40177 | 113.30836 | 58 ft | 12 kts | 195° |
| 2026-04-25 08:08 | 23.40086 | 113.30811 | 63 ft | 15 kts | 194° |
| 2026-04-25 08:08 | 23.39979 | 113.30782 | 58 ft | 17 kts | 193° |
| 2026-04-25 08:09 | 23.39859 | 113.30750 | 59 ft | 19 kts | 194° |
| 2026-04-25 08:09 | 23.39729 | 113.30716 | 59 ft | 20 kts | 194° |
| 2026-04-25 08:09 | 23.39592 | 113.30679 | 56 ft | 21 kts | 194° |
| 2026-04-25 08:09 | 23.39450 | 113.30640 | 57 ft | 21 kts | 194° |
| 2026-04-25 08:10 | 23.39303 | 113.30600 | 56 ft | 22 kts | 194° |
| 2026-04-25 08:10 | 23.39153 | 113.30559 | 59 ft | 22 kts | 194° |
| 2026-04-25 08:10 | 23.39029 | 113.30526 | 56 ft | 6 kts | 194° |
| 2026-04-25 08:10 | 23.38984 | 113.30527 | 59 ft | 7 kts | 143° |
| 2026-04-25 08:11 | 23.38959 | 113.30577 | 57 ft | 10 kts | 108° |
| 2026-04-25 08:11 | 23.38944 | 113.30634 | 63 ft | 13 kts | 104° |
| 2026-04-25 08:11 | 23.38864 | 113.30679 | 58 ft | 12 kts | 193° |
| 2026-04-25 08:11 | 23.38768 | 113.30657 | 59 ft | 16 kts | 194° |
| 2026-04-25 08:12 | 23.38690 | 113.30635 | 61 ft | 18 kts | 194° |
| 2026-04-25 08:12 | 23.38561 | 113.30600 | 59 ft | 20 kts | 194° |
| 2026-04-25 08:12 | 23.38419 | 113.30562 | 54 ft | 22 kts | 194° |
| 2026-04-25 08:12 | 23.38266 | 113.30520 | 57 ft | 23 kts | 194° |
| 2026-04-25 08:13 | 23.38123 | 113.30482 | 59 ft | 16 kts | 194° |
| 2026-04-25 08:13 | 23.38007 | 113.30451 | 56 ft | 18 kts | 194° |
| 2026-04-25 08:13 | 23.37875 | 113.30415 | 56 ft | 21 kts | 194° |
| 2026-04-25 08:14 | 23.37654 | 113.30358 | 54 ft | 7 kts | 172° |
| 2026-04-25 08:14 | 23.37616 | 113.30396 | 57 ft | 9 kts | 104° |
| 2026-04-25 08:14 | 23.37597 | 113.30480 | 56 ft | 14 kts | 103° |
| 2026-04-25 08:14 | 23.37570 | 113.30592 | 63 ft | 17 kts | 107° |
| 2026-04-25 08:15 | 23.37555 | 113.30654 | 56 ft | 4 kts | 103° |
| 2026-04-25 08:15 | 23.37541 | 113.30704 | 59 ft | 6 kts | 127° |
| 2026-04-25 08:15 | 23.37507 | 113.30714 | 56 ft | 8 kts | 180° |
| 2026-04-25 08:15 | 23.37440 | 113.30700 | 58 ft | 12 kts | 195° |
| 2026-04-25 08:16 | 23.37347 | 113.30674 | 56 ft | 16 kts | 194° |
| 2026-04-25 08:16 | 23.37231 | 113.30644 | 55 ft | 18 kts | 193° |
| 2026-04-25 08:16 | 23.37100 | 113.30608 | 58 ft | 20 kts | 194° |
| 2026-04-25 08:16 | 23.37069 | 113.30600 | 58 ft | 4 kts | 194° |
| 2026-04-25 08:17 | 23.37027 | 113.30601 | 58 ft | 7 kts | 156° |
| 2026-04-25 08:17 | 23.37006 | 113.30628 | 58 ft | 0 kts | 102° |
| 2026-04-25 08:18 | 23.37005 | 113.30635 | 57 ft | 4 kts | 105° |
| 2026-04-25 08:18 | 23.36993 | 113.30684 | 62 ft | 10 kts | 105° |
| 2026-04-25 08:19 | 23.36983 | 113.30725 | 57 ft | 3 kts | 104° |
| 2026-04-25 08:19 | 23.36975 | 113.30761 | 55 ft | 1 kts | 86° |
| 2026-04-25 08:19 | 23.36977 | 113.30769 | 55 ft | 1 kts | 54° |
| 2026-04-25 08:19 | 23.36987 | 113.30779 | 56 ft | 4 kts | 27° |
| 2026-04-25 08:20 | 23.37007 | 113.30783 | 59 ft | 4 kts | 5° |
| 2026-04-25 08:20 | 23.37050 | 113.30795 | 54 ft | 9 kts | 16° |
| 2026-04-25 08:20 | 23.37078 | 113.30803 | 57 ft | 0 kts | 14° |
| 2026-04-25 08:21 | 23.37106 | 113.30810 | 57 ft | 27 kts | 14° |
| 2026-04-25 08:21 | 23.37574 | 113.30937 | 57 ft | 108 kts | 14° |
| 2026-04-25 08:21 | 23.38498 | 113.31186 | 57 ft | 160 kts | 14° |
| 2026-04-25 08:21 | 23.39599 | 113.31483 | 493 ft | 166 kts | 13° |
| 2026-04-25 08:22 | 23.40748 | 113.31791 | 1039 ft | 169 kts | 14° |
| 2026-04-25 08:22 | 23.41849 | 113.32084 | 1726 ft | 162 kts | 13° |
| 2026-04-25 08:22 | 23.42981 | 113.32380 | 2106 ft | 175 kts | 14° |
| 2026-04-25 08:22 | 23.44234 | 113.32723 | 2428 ft | 198 kts | 14° |
| 2026-04-25 08:23 | 23.45641 | 113.33108 | 2949 ft | 218 kts | 14° |
| 2026-04-25 08:23 | 23.47189 | 113.33530 | 3493 ft | 236 kts | 14° |
| 2026-04-25 08:23 | 23.48800 | 113.33964 | 4383 ft | 241 kts | 14° |
| 2026-04-25 08:23 | 23.50440 | 113.34408 | 5262 ft | 244 kts | 14° |
| 2026-04-25 08:24 | 23.52099 | 113.34858 | 6163 ft | 248 kts | 14° |
| 2026-04-25 08:24 | 23.53783 | 113.35315 | 7003 ft | 250 kts | 12° |
| 2026-04-25 08:24 | 23.55518 | 113.35588 | 7815 ft | 255 kts | 3° |
| 2026-04-25 08:24 | 23.57299 | 113.35706 | 8645 ft | 258 kts | 2° |
| 2026-04-25 08:25 | 23.59104 | 113.35831 | 9485 ft | 262 kts | 2° |
| 2026-04-25 08:25 | 23.60935 | 113.35979 | 10255 ft | 266 kts | 3° |
| 2026-04-25 08:25 | 23.62785 | 113.36145 | 11037 ft | 268 kts | 2° |
| 2026-04-25 08:25 | 23.64646 | 113.36320 | 11813 ft | 270 kts | 2° |
| 2026-04-25 08:26 | 23.66523 | 113.36502 | 12613 ft | 272 kts | 2° |
| 2026-04-25 08:26 | 23.68415 | 113.36684 | 13379 ft | 274 kts | 2° |
| 2026-04-25 08:26 | 23.70323 | 113.36866 | 14102 ft | 277 kts | 1° |
| 2026-04-25 08:26 | 23.72256 | 113.37050 | 14739 ft | 281 kts | 1° |
| 2026-04-25 08:27 | 23.74215 | 113.37236 | 15380 ft | 284 kts | 1° |
| 2026-04-25 08:27 | 23.76200 | 113.37426 | 16002 ft | 288 kts | 0° |
| 2026-04-25 08:27 | 23.78180 | 113.37615 | 16622 ft | 291 kts | 360° |
| 2026-04-25 08:27 | 23.80228 | 113.37807 | 16992 ft | 304 kts | 360° |
| 2026-04-25 08:28 | 23.82399 | 113.38005 | 17148 ft | 322 kts | 360° |
| 2026-04-25 08:28 | 23.84693 | 113.38217 | 17318 ft | 340 kts | 0° |
| 2026-04-25 08:28 | 23.87109 | 113.38444 | 17473 ft | 357 kts | 0° |
| 2026-04-25 08:28 | 23.89636 | 113.38684 | 17631 ft | 372 kts | 1° |
| 2026-04-25 08:29 | 23.92243 | 113.38937 | 18052 ft | 379 kts | 1° |
| 2026-04-25 08:29 | 23.94878 | 113.39194 | 18565 ft | 382 kts | 0° |
| 2026-04-25 08:29 | 23.97539 | 113.39450 | 19025 ft | 386 kts | 0° |
| 2026-04-25 08:29 | 24.00229 | 113.39706 | 19469 ft | 390 kts | 0° |
| 2026-04-25 08:30 | 24.02939 | 113.39963 | 19927 ft | 393 kts | 0° |
| 2026-04-25 08:30 | 24.05679 | 113.40224 | 20348 ft | 397 kts | 0° |
| 2026-04-25 08:30 | 24.08441 | 113.40487 | 20832 ft | 400 kts | 360° |
| 2026-04-25 08:30 | 24.11230 | 113.40750 | 21252 ft | 405 kts | 360° |
| 2026-04-25 08:31 | 24.14050 | 113.41018 | 21699 ft | 408 kts | 360° |
| 2026-04-25 08:31 | 24.16890 | 113.41290 | 22132 ft | 412 kts | 360° |
| 2026-04-25 08:31 | 24.19759 | 113.41533 | 22536 ft | 414 kts | 356° |
| 2026-04-25 08:31 | 24.22645 | 113.41616 | 22963 ft | 417 kts | 356° |
| 2026-04-25 08:32 | 24.25560 | 113.41708 | 23399 ft | 421 kts | 356° |
| 2026-04-25 08:32 | 24.28498 | 113.41805 | 23794 ft | 424 kts | 356° |
| 2026-04-25 08:32 | 24.31452 | 113.41906 | 24232 ft | 425 kts | 356° |
| 2026-04-25 08:32 | 24.34408 | 113.42006 | 24662 ft | 426 kts | 356° |
| 2026-04-25 08:33 | 24.37378 | 113.42101 | 25143 ft | 427 kts | 355° |
| 2026-04-25 08:33 | 24.40345 | 113.42180 | 25621 ft | 428 kts | 355° |
| 2026-04-25 08:33 | 24.43331 | 113.42257 | 26044 ft | 431 kts | 355° |
| 2026-04-25 08:33 | 24.46337 | 113.42336 | 26527 ft | 432 kts | 355° |
| 2026-04-25 08:34 | 24.49353 | 113.42420 | 27031 ft | 434 kts | 355° |
| 2026-04-25 08:34 | 24.52377 | 113.42506 | 27579 ft | 436 kts | 355° |
| 2026-04-25 08:34 | 24.55419 | 113.42593 | 28097 ft | 438 kts | 355° |
| 2026-04-25 08:34 | 24.58475 | 113.42679 | 28618 ft | 441 kts | 355° |
| 2026-04-25 08:35 | 24.61549 | 113.42765 | 29142 ft | 443 kts | 355° |
| 2026-04-25 08:35 | 24.64605 | 113.42854 | 29697 ft | 446 kts | 355° |
| 2026-04-25 08:35 | 24.67712 | 113.42940 | 30280 ft | 446 kts | 354° |
| 2026-04-25 08:35 | 24.70833 | 113.43021 | 30663 ft | 451 kts | 355° |
| 2026-04-25 08:36 | 24.73985 | 113.43111 | 31028 ft | 456 kts | 355° |
| 2026-04-25 08:36 | 24.77173 | 113.43203 | 31411 ft | 460 kts | 355° |
| 2026-04-25 08:36 | 24.80381 | 113.43297 | 31786 ft | 464 kts | 355° |
| 2026-04-25 08:36 | 24.83626 | 113.43389 | 32158 ft | 468 kts | 355° |
| 2026-04-25 08:37 | 24.86895 | 113.43483 | 32528 ft | 472 kts | 355° |
| 2026-04-25 08:37 | 24.90193 | 113.43577 | 32895 ft | 476 kts | 355° |
| 2026-04-25 08:37 | 24.93522 | 113.43672 | 33291 ft | 480 kts | 354° |
| 2026-04-25 08:37 | 24.96870 | 113.43769 | 33706 ft | 483 kts | 354° |
| 2026-04-25 08:38 | 25.00248 | 113.43864 | 34026 ft | 488 kts | 354° |
| 2026-04-25 08:38 | 25.03652 | 113.43961 | 34401 ft | 490 kts | 354° |
| 2026-04-25 08:38 | 25.07060 | 113.44060 | 34915 ft | 489 kts | 354° |
| 2026-04-25 08:38 | 25.10446 | 113.44160 | 35549 ft | 485 kts | 353° |
| 2026-04-25 08:39 | 25.13804 | 113.44260 | 36170 ft | 481 kts | 353° |
| 2026-04-25 08:39 | 25.17139 | 113.44358 | 36776 ft | 478 kts | 353° |
| 2026-04-25 08:39 | 25.20451 | 113.44453 | 37390 ft | 474 kts | 352° |
| 2026-04-25 08:39 | 25.23730 | 113.44547 | 38007 ft | 471 kts | 351° |
| 2026-04-25 08:40 | 25.27006 | 113.44632 | 38305 ft | 470 kts | 350° |
| 2026-04-25 08:40 | 25.30262 | 113.44726 | 38708 ft | 467 kts | 351° |
| 2026-04-25 08:40 | 25.33518 | 113.44829 | 38926 ft | 470 kts | 351° |
| 2026-04-25 08:40 | 25.36796 | 113.44921 | 39116 ft | 472 kts | 351° |
| 2026-04-25 08:41 | 25.40108 | 113.45008 | 39113 ft | 482 kts | 351° |
| 2026-04-25 08:41 | 25.43426 | 113.45108 | 39108 ft | 471 kts | 351° |
| 2026-04-25 08:41 | 25.46695 | 113.45211 | 39118 ft | 471 kts | 351° |
| 2026-04-25 08:42 | 25.53288 | 113.45400 | 39119 ft | 475 kts | 351° |
| 2026-04-25 08:42 | 25.59850 | 113.45585 | 39116 ft | 474 kts | 351° |
| 2026-04-25 08:43 | 25.66453 | 113.45769 | 39116 ft | 476 kts | 351° |
| 2026-04-25 08:43 | 25.73061 | 113.45961 | 39096 ft | 474 kts | 351° |
| 2026-04-25 08:44 | 25.79636 | 113.46153 | 39135 ft | 472 kts | 351° |
| 2026-04-25 08:44 | 25.86178 | 113.46334 | 39093 ft | 468 kts | 350° |
| 2026-04-25 08:45 | 25.92632 | 113.46129 | 39080 ft | 463 kts | 347° |
| 2026-04-25 08:45 | 25.99062 | 113.45889 | 39071 ft | 462 kts | 347° |
| 2026-04-25 08:46 | 26.05473 | 113.45647 | 39066 ft | 460 kts | 347° |
| 2026-04-25 08:46 | 26.11897 | 113.45398 | 39109 ft | 464 kts | 347° |
| 2026-04-25 08:47 | 26.18360 | 113.45151 | 39110 ft | 465 kts | 347° |
| 2026-04-25 08:47 | 26.24829 | 113.44907 | 39108 ft | 465 kts | 347° |
| 2026-04-25 08:48 | 26.31253 | 113.44661 | 39105 ft | 465 kts | 347° |
| 2026-04-25 08:48 | 26.37768 | 113.44410 | 39108 ft | 465 kts | 347° |
| 2026-04-25 08:49 | 26.44193 | 113.44163 | 39107 ft | 465 kts | 347° |
| 2026-04-25 08:49 | 26.50655 | 113.43915 | 39105 ft | 465 kts | 347° |
| 2026-04-25 08:50 | 26.57118 | 113.43667 | 39101 ft | 465 kts | 347° |
| 2026-04-25 08:50 | 26.63581 | 113.43419 | 39103 ft | 465 kts | 347° |
| 2026-04-25 08:51 | 26.70041 | 113.43171 | 39112 ft | 464 kts | 347° |
| 2026-04-25 08:51 | 26.76493 | 113.42925 | 39102 ft | 462 kts | 346° |
| 2026-04-25 08:52 | 26.82899 | 113.42679 | 39071 ft | 461 kts | 347° |
| 2026-04-25 08:52 | 26.89317 | 113.42428 | 39086 ft | 462 kts | 347° |
| 2026-04-25 08:53 | 26.95762 | 113.42179 | 39107 ft | 464 kts | 347° |
| 2026-04-25 08:53 | 27.02220 | 113.41931 | 39115 ft | 465 kts | 347° |
| 2026-04-25 08:54 | 27.08688 | 113.41682 | 39118 ft | 465 kts | 347° |
| 2026-04-25 08:54 | 27.15157 | 113.41432 | 39120 ft | 465 kts | 347° |
| 2026-04-25 08:55 | 27.21628 | 113.41181 | 39162 ft | 465 kts | 348° |
| 2026-04-25 08:55 | 27.28088 | 113.40932 | 39140 ft | 464 kts | 348° |
| 2026-04-25 08:56 | 27.34495 | 113.40698 | 39130 ft | 464 kts | 349° |
| 2026-04-25 08:56 | 27.40982 | 113.40831 | 39121 ft | 467 kts | 351° |
| 2026-04-25 08:57 | 27.47466 | 113.41022 | 39115 ft | 465 kts | 351° |
| 2026-04-25 08:57 | 27.53937 | 113.41163 | 39121 ft | 465 kts | 351° |
| 2026-04-25 08:58 | 27.60395 | 113.41290 | 39111 ft | 464 kts | 351° |
| 2026-04-25 08:58 | 27.60889 | 113.41300 | 39112 ft | 463 kts | 351° |
| 2026-04-25 08:59 | 27.67119 | 113.41527 | 39105 ft | 468 kts | 355° |
| 2026-04-25 09:00 | 27.72509 | 113.42028 | 39102 ft | 467 kts | 354° |
| 2026-04-25 09:00 | 27.80078 | 113.42693 | 39119 ft | 466 kts | 354° |
| 2026-04-25 09:01 | 27.86548 | 113.43266 | 39104 ft | 466 kts | 354° |
| 2026-04-25 09:01 | 27.91924 | 113.43741 | 39099 ft | 466 kts | 354° |
| 2026-04-25 09:02 | 27.98388 | 113.44306 | 39098 ft | 466 kts | 354° |
| 2026-04-25 09:02 | 28.05894 | 113.44958 | 39104 ft | 466 kts | 355° |
| 2026-04-25 09:03 | 28.11309 | 113.45423 | 39101 ft | 465 kts | 354° |
| 2026-04-25 09:03 | 28.17774 | 113.45873 | 39110 ft | 465 kts | 354° |
| 2026-04-25 09:04 | 28.24197 | 113.46316 | 39109 ft | 465 kts | 354° |
| 2026-04-25 09:04 | 28.30659 | 113.46779 | 39121 ft | 465 kts | 355° |
| 2026-04-25 09:05 | 28.37122 | 113.47246 | 39109 ft | 465 kts | 354° |
| 2026-04-25 09:05 | 28.43571 | 113.47710 | 39103 ft | 464 kts | 354° |
| 2026-04-25 09:06 | 28.50013 | 113.48168 | 39100 ft | 464 kts | 354° |
| 2026-04-25 09:06 | 28.56455 | 113.48627 | 39125 ft | 464 kts | 355° |
| 2026-04-25 09:07 | 28.62908 | 113.49088 | 39090 ft | 465 kts | 355° |
| 2026-04-25 09:07 | 28.69372 | 113.49552 | 39103 ft | 465 kts | 355° |
| 2026-04-25 09:08 | 28.75841 | 113.50016 | 39100 ft | 466 kts | 355° |
| 2026-04-25 09:08 | 28.82321 | 113.50481 | 39112 ft | 467 kts | 355° |
| 2026-04-25 09:09 | 28.88809 | 113.50947 | 39103 ft | 467 kts | 356° |
| 2026-04-25 09:09 | 28.95298 | 113.51414 | 39100 ft | 467 kts | 356° |
| 2026-04-25 09:10 | 29.01790 | 113.51882 | 39105 ft | 468 kts | 356° |
| 2026-04-25 09:10 | 29.08284 | 113.52350 | 39109 ft | 468 kts | 356° |
| 2026-04-25 09:11 | 29.17980 | 113.53051 | 39104 ft | 467 kts | 356° |
| 2026-04-25 09:11 | 29.24517 | 113.53524 | 39096 ft | 468 kts | 356° |
| 2026-04-25 09:12 | 29.31016 | 113.54007 | 39108 ft | 469 kts | 356° |
| 2026-04-25 09:12 | 29.37523 | 113.54579 | 39094 ft | 469 kts | 357° |
| 2026-04-25 09:13 | 29.43988 | 113.55152 | 39095 ft | 469 kts | 357° |
| 2026-04-25 09:13 | 29.50490 | 113.55718 | 39089 ft | 468 kts | 357° |
| 2026-04-25 09:14 | 29.56966 | 113.56280 | 39079 ft | 468 kts | 357° |
| 2026-04-25 09:14 | 29.63455 | 113.56842 | 39061 ft | 469 kts | 358° |
| 2026-04-25 09:15 | 29.69966 | 113.57409 | 39062 ft | 470 kts | 358° |
| 2026-04-25 09:15 | 29.76490 | 113.57978 | 39071 ft | 471 kts | 358° |
| 2026-04-25 09:16 | 29.83029 | 113.58549 | 39075 ft | 472 kts | 358° |
| 2026-04-25 09:16 | 29.89581 | 113.59180 | 39080 ft | 476 kts | 2° |
| 2026-04-25 09:17 | 29.99310 | 113.62019 | 39089 ft | 488 kts | 15° |
| 2026-04-25 09:18 | 30.05583 | 113.65106 | 39088 ft | 490 kts | 17° |
| 2026-04-25 09:18 | 30.11852 | 113.68205 | 39118 ft | 490 kts | 18° |
| 2026-04-25 09:19 | 30.18110 | 113.71320 | 39112 ft | 489 kts | 18° |
| 2026-04-25 09:19 | 30.24352 | 113.74442 | 39099 ft | 488 kts | 18° |
| 2026-04-25 09:20 | 30.30589 | 113.77567 | 39078 ft | 488 kts | 18° |
| 2026-04-25 09:20 | 30.36815 | 113.80690 | 39105 ft | 487 kts | 19° |
| 2026-04-25 09:21 | 30.42986 | 113.83791 | 39102 ft | 486 kts | 19° |
| 2026-04-25 09:21 | 30.49184 | 113.86909 | 39091 ft | 485 kts | 19° |
| 2026-04-25 09:22 | 30.55373 | 113.90028 | 39086 ft | 485 kts | 19° |
| 2026-04-25 09:22 | 30.61550 | 113.93143 | 39115 ft | 483 kts | 19° |
| 2026-04-25 09:23 | 30.67702 | 113.96251 | 39102 ft | 481 kts | 19° |
| 2026-04-25 09:23 | 30.73811 | 113.99415 | 39090 ft | 481 kts | 20° |
| 2026-04-25 09:24 | 30.79863 | 114.02721 | 39079 ft | 480 kts | 20° |
| 2026-04-25 09:24 | 30.85884 | 114.06001 | 39112 ft | 477 kts | 20° |
| 2026-04-25 09:25 | 30.91912 | 114.09271 | 39083 ft | 477 kts | 20° |
| 2026-04-25 09:25 | 30.97921 | 114.12531 | 39091 ft | 476 kts | 20° |
| 2026-04-25 09:26 | 31.03912 | 114.15787 | 39085 ft | 475 kts | 20° |
| 2026-04-25 09:26 | 31.09891 | 114.19036 | 39109 ft | 473 kts | 20° |
| 2026-04-25 09:27 | 31.15845 | 114.22276 | 39097 ft | 471 kts | 20° |
| 2026-04-25 09:27 | 31.21789 | 114.25516 | 39089 ft | 471 kts | 20° |
| 2026-04-25 09:28 | 31.27724 | 114.28755 | 39088 ft | 470 kts | 20° |
| 2026-04-25 09:28 | 31.33752 | 114.31575 | 39097 ft | 463 kts | 12° |
| 2026-04-25 09:29 | 31.40013 | 114.33086 | 39091 ft | 457 kts | 3° |
| 2026-04-25 09:29 | 31.46292 | 114.33440 | 39084 ft | 454 kts | 358° |
| 2026-04-25 09:30 | 31.52596 | 114.33643 | 39082 ft | 453 kts | 358° |
| 2026-04-25 09:30 | 31.58894 | 114.33842 | 39078 ft | 452 kts | 358° |
| 2026-04-25 09:31 | 31.65186 | 114.34029 | 39072 ft | 452 kts | 358° |
| 2026-04-25 09:31 | 31.71475 | 114.34213 | 39072 ft | 452 kts | 358° |
| 2026-04-25 09:32 | 31.77772 | 114.34403 | 39073 ft | 452 kts | 358° |
| 2026-04-25 09:32 | 31.84061 | 114.34596 | 39085 ft | 452 kts | 358° |
| 2026-04-25 09:33 | 31.90346 | 114.34785 | 39078 ft | 451 kts | 358° |
| 2026-04-25 09:33 | 31.96619 | 114.34973 | 39075 ft | 451 kts | 358° |
| 2026-04-25 09:34 | 32.02885 | 114.35162 | 39072 ft | 450 kts | 358° |
| 2026-04-25 09:34 | 32.09145 | 114.35351 | 39083 ft | 449 kts | 358° |
| 2026-04-25 09:35 | 32.15395 | 114.35539 | 39079 ft | 449 kts | 358° |
| 2026-04-25 09:35 | 32.21594 | 114.35727 | 39074 ft | 449 kts | 358° |
| 2026-04-25 09:36 | 32.27838 | 114.35946 | 39088 ft | 449 kts | 0° |
| 2026-04-25 09:36 | 32.34080 | 114.36542 | 39085 ft | 450 kts | 2° |
| 2026-04-25 09:37 | 32.40317 | 114.37166 | 39080 ft | 450 kts | 1° |
| 2026-04-25 09:37 | 32.46554 | 114.37745 | 39081 ft | 450 kts | 1° |
| 2026-04-25 09:38 | 32.52791 | 114.38312 | 39095 ft | 449 kts | 1° |
| 2026-04-25 09:38 | 32.59031 | 114.38880 | 39077 ft | 450 kts | 1° |
| 2026-04-25 09:39 | 32.65283 | 114.39450 | 39079 ft | 451 kts | 1° |
| 2026-04-25 09:39 | 32.71536 | 114.40030 | 39083 ft | 451 kts | 1° |
| 2026-04-25 09:40 | 32.80928 | 114.40908 | 39088 ft | 451 kts | 1° |
| 2026-04-25 09:40 | 32.87193 | 114.41493 | 39088 ft | 451 kts | 1° |
| 2026-04-25 09:41 | 32.93452 | 114.42079 | 39090 ft | 451 kts | 1° |
| 2026-04-25 09:41 | 32.99715 | 114.42666 | 39088 ft | 451 kts | 1° |
| 2026-04-25 09:42 | 33.05973 | 114.43254 | 39099 ft | 451 kts | 1° |
| 2026-04-25 09:42 | 33.12229 | 114.43842 | 39095 ft | 451 kts | 1° |
| 2026-04-25 09:43 | 33.18477 | 114.44431 | 39091 ft | 450 kts | 1° |
| 2026-04-25 09:43 | 33.24723 | 114.45019 | 39088 ft | 450 kts | 1° |
| 2026-04-25 09:44 | 33.30919 | 114.45604 | 39090 ft | 449 kts | 1° |
| 2026-04-25 09:44 | 33.37149 | 114.46189 | 39084 ft | 449 kts | 1° |
| 2026-04-25 09:45 | 33.43381 | 114.46775 | 39084 ft | 449 kts | 1° |
| 2026-04-25 09:45 | 33.49608 | 114.47362 | 39087 ft | 449 kts | 1° |
| 2026-04-25 09:46 | 33.55840 | 114.47950 | 39085 ft | 449 kts | 1° |
| 2026-04-25 09:46 | 33.62071 | 114.48539 | 39086 ft | 449 kts | 1° |
| 2026-04-25 09:47 | 33.68303 | 114.49122 | 39086 ft | 449 kts | 1° |
| 2026-04-25 09:47 | 33.74534 | 114.49704 | 39080 ft | 449 kts | 1° |
| 2026-04-25 09:48 | 33.80765 | 114.50287 | 39082 ft | 449 kts | 1° |
| 2026-04-25 09:48 | 33.86994 | 114.50871 | 39081 ft | 449 kts | 1° |
| 2026-04-25 09:49 | 33.92171 | 114.51359 | 39079 ft | 449 kts | 1° |
| 2026-04-25 09:49 | 33.98392 | 114.51945 | 39078 ft | 448 kts | 1° |
| 2026-04-25 09:50 | 34.04612 | 114.52532 | 39078 ft | 448 kts | 1° |
| 2026-04-25 09:50 | 34.10828 | 114.53120 | 39074 ft | 448 kts | 1° |
| 2026-04-25 09:51 | 34.17043 | 114.53708 | 39072 ft | 448 kts | 1° |
| 2026-04-25 09:51 | 34.23261 | 114.54298 | 39075 ft | 448 kts | 1° |
| 2026-04-25 09:52 | 34.29478 | 114.54888 | 39076 ft | 448 kts | 1° |
| 2026-04-25 09:52 | 34.35697 | 114.55479 | 39075 ft | 448 kts | 1° |
| 2026-04-25 09:53 | 34.41872 | 114.56068 | 39078 ft | 448 kts | 1° |
| 2026-04-25 09:53 | 34.48091 | 114.56660 | 39070 ft | 448 kts | 1° |
| 2026-04-25 09:54 | 34.54309 | 114.57249 | 39067 ft | 448 kts | 1° |
| 2026-04-25 09:54 | 34.60528 | 114.57837 | 39068 ft | 448 kts | 1° |
| 2026-04-25 09:55 | 34.66744 | 114.58427 | 39058 ft | 448 kts | 2° |
| 2026-04-25 09:55 | 34.72970 | 114.59020 | 39060 ft | 449 kts | 2° |
| 2026-04-25 09:56 | 34.79204 | 114.59614 | 39057 ft | 449 kts | 2° |
| 2026-04-25 09:56 | 34.85433 | 114.60208 | 39056 ft | 449 kts | 2° |
| 2026-04-25 09:57 | 34.91670 | 114.60804 | 39050 ft | 450 kts | 2° |
| 2026-04-25 09:57 | 34.97916 | 114.61402 | 39049 ft | 450 kts | 2° |
| 2026-04-25 09:58 | 35.04166 | 114.62001 | 39050 ft | 451 kts | 2° |
| 2026-04-25 09:58 | 35.10417 | 114.62601 | 39050 ft | 451 kts | 2° |
| 2026-04-25 09:59 | 35.16675 | 114.63203 | 39041 ft | 452 kts | 2° |
| 2026-04-25 09:59 | 35.22945 | 114.63807 | 39038 ft | 452 kts | 2° |
| 2026-04-25 10:00 | 35.29210 | 114.64411 | 39041 ft | 452 kts | 2° |
| 2026-04-25 10:00 | 35.35482 | 114.65017 | 39049 ft | 452 kts | 2° |
| 2026-04-25 10:01 | 35.41746 | 114.65623 | 39034 ft | 451 kts | 2° |
| 2026-04-25 10:01 | 35.48009 | 114.66230 | 39029 ft | 451 kts | 2° |
| 2026-04-25 10:02 | 35.54260 | 114.66837 | 39035 ft | 451 kts | 2° |
| 2026-04-25 10:02 | 35.60501 | 114.67444 | 39048 ft | 449 kts | 2° |
| 2026-04-25 10:03 | 35.66685 | 114.68046 | 39036 ft | 448 kts | 2° |
| 2026-04-25 10:03 | 35.72890 | 114.68651 | 39033 ft | 447 kts | 2° |
| 2026-04-25 10:04 | 35.79086 | 114.69257 | 39039 ft | 446 kts | 2° |
| 2026-04-25 10:04 | 35.85255 | 114.69860 | 39044 ft | 444 kts | 2° |
| 2026-04-25 10:05 | 35.91399 | 114.70462 | 39035 ft | 442 kts | 2° |
| 2026-04-25 10:05 | 35.97524 | 114.71063 | 39017 ft | 441 kts | 2° |
| 2026-04-25 10:06 | 36.03633 | 114.71664 | 39023 ft | 440 kts | 2° |
| 2026-04-25 10:06 | 36.09726 | 114.72263 | 39016 ft | 439 kts | 1° |
| 2026-04-25 10:07 | 36.15803 | 114.72857 | 39005 ft | 438 kts | 1° |
| 2026-04-25 10:07 | 36.21866 | 114.73449 | 38996 ft | 437 kts | 1° |
| 2026-04-25 10:08 | 36.27923 | 114.74043 | 38988 ft | 436 kts | 1° |
| 2026-04-25 10:08 | 36.33967 | 114.74647 | 38983 ft | 436 kts | 2° |
| 2026-04-25 10:09 | 36.40000 | 114.74883 | 38974 ft | 433 kts | 355° |
| 2026-04-25 10:09 | 36.45990 | 114.74588 | 38977 ft | 432 kts | 356° |
| 2026-04-25 10:10 | 36.51990 | 114.74332 | 38973 ft | 432 kts | 355° |
| 2026-04-25 10:10 | 36.57997 | 114.74065 | 38968 ft | 432 kts | 355° |
| 2026-04-25 10:11 | 36.64003 | 114.73791 | 38963 ft | 432 kts | 355° |
| 2026-04-25 10:11 | 36.70016 | 114.73516 | 38984 ft | 432 kts | 355° |
| 2026-04-25 10:12 | 36.76037 | 114.73906 | 38979 ft | 436 kts | 6° |
| 2026-04-25 10:13 | 36.84785 | 114.77292 | 38973 ft | 445 kts | 21° |
| 2026-04-25 10:13 | 36.90351 | 114.80537 | 38995 ft | 444 kts | 19° |
| 2026-04-25 10:14 | 36.95949 | 114.83771 | 38992 ft | 443 kts | 20° |
| 2026-04-25 10:14 | 37.01525 | 114.87015 | 38985 ft | 442 kts | 20° |
| 2026-04-25 10:15 | 37.07091 | 114.90266 | 38971 ft | 441 kts | 20° |
| 2026-04-25 10:15 | 37.12639 | 114.93513 | 38971 ft | 440 kts | 19° |
| 2026-04-25 10:16 | 37.18178 | 114.96758 | 38968 ft | 439 kts | 19° |
| 2026-04-25 10:16 | 37.23702 | 115.00001 | 38960 ft | 438 kts | 19° |
| 2026-04-25 10:17 | 37.29221 | 115.03245 | 38944 ft | 438 kts | 19° |
| 2026-04-25 10:17 | 37.34739 | 115.06494 | 38940 ft | 438 kts | 19° |
| 2026-04-25 10:18 | 37.40254 | 115.09746 | 38936 ft | 438 kts | 19° |
| 2026-04-25 10:18 | 37.45769 | 115.13004 | 38938 ft | 438 kts | 19° |
| 2026-04-25 10:19 | 37.51293 | 115.16272 | 38939 ft | 440 kts | 19° |
| 2026-04-25 10:19 | 37.56835 | 115.19557 | 38944 ft | 441 kts | 19° |
| 2026-04-25 10:20 | 37.62390 | 115.22854 | 38951 ft | 442 kts | 19° |
| 2026-04-25 10:20 | 37.67953 | 115.26164 | 38956 ft | 442 kts | 19° |
| 2026-04-25 10:21 | 37.73527 | 115.29483 | 38961 ft | 443 kts | 19° |
| 2026-04-25 10:21 | 37.79238 | 115.32196 | 38963 ft | 434 kts | 8° |
| 2026-04-25 10:22 | 37.85124 | 115.33134 | 38957 ft | 427 kts | 356° |
| 2026-04-25 10:22 | 37.91010 | 115.32540 | 38967 ft | 423 kts | 350° |
| 2026-04-25 10:23 | 37.96858 | 115.31730 | 38960 ft | 422 kts | 350° |
| 2026-04-25 10:23 | 38.02700 | 115.30917 | 38948 ft | 422 kts | 350° |
| 2026-04-25 10:24 | 38.08525 | 115.30095 | 38960 ft | 421 kts | 350° |
| 2026-04-25 10:24 | 38.14343 | 115.29248 | 38940 ft | 420 kts | 349° |
| 2026-04-25 10:25 | 38.20150 | 115.28385 | 38938 ft | 420 kts | 349° |
| 2026-04-25 10:25 | 38.25951 | 115.27525 | 38922 ft | 419 kts | 349° |
| 2026-04-25 10:26 | 38.31746 | 115.26667 | 38917 ft | 419 kts | 349° |
| 2026-04-25 10:26 | 38.37539 | 115.25809 | 38916 ft | 419 kts | 349° |
| 2026-04-25 10:27 | 38.43331 | 115.24949 | 38916 ft | 419 kts | 349° |
| 2026-04-25 10:27 | 38.49091 | 115.24104 | 38917 ft | 420 kts | 352° |
| 2026-04-25 10:28 | 38.54974 | 115.24808 | 38913 ft | 434 kts | 9° |
| 2026-04-25 10:28 | 38.57839 | 115.26139 | 38729 ft | 442 kts | 19° |
| 2026-04-25 10:28 | 38.60543 | 115.28098 | 37685 ft | 453 kts | 28° |
| 2026-04-25 10:28 | 38.62983 | 115.30757 | 36405 ft | 470 kts | 39° |
| 2026-04-25 10:29 | 38.65022 | 115.34062 | 35833 ft | 477 kts | 49° |
| 2026-04-25 10:29 | 38.66628 | 115.37830 | 35026 ft | 487 kts | 57° |
| 2026-04-25 10:29 | 38.68070 | 115.41783 | 33936 ft | 495 kts | 57° |
| 2026-04-25 10:29 | 38.69530 | 115.45776 | 33048 ft | 496 kts | 57° |
| 2026-04-25 10:30 | 38.70982 | 115.49759 | 32452 ft | 490 kts | 58° |
| 2026-04-25 10:30 | 38.71943 | 115.52353 | 32213 ft | 481 kts | 55° |
| 2026-04-25 10:30 | 38.74108 | 115.57134 | 31743 ft | 469 kts | 52° |
| 2026-04-25 10:30 | 38.75780 | 115.60718 | 31134 ft | 468 kts | 52° |
| 2026-04-25 10:31 | 38.77434 | 115.64290 | 30546 ft | 464 kts | 53° |
| 2026-04-25 10:31 | 38.79072 | 115.67835 | 29981 ft | 461 kts | 53° |
| 2026-04-25 10:31 | 38.80697 | 115.71360 | 29332 ft | 457 kts | 53° |
| 2026-04-25 10:31 | 38.82304 | 115.74848 | 28766 ft | 452 kts | 53° |
| 2026-04-25 10:32 | 38.83892 | 115.78296 | 28187 ft | 447 kts | 53° |
| 2026-04-25 10:32 | 38.85466 | 115.81716 | 27612 ft | 443 kts | 53° |
| 2026-04-25 10:32 | 38.87002 | 115.85056 | 27049 ft | 439 kts | 54° |
| 2026-04-25 10:32 | 38.88545 | 115.88415 | 26474 ft | 435 kts | 54° |
| 2026-04-25 10:33 | 38.90077 | 115.91752 | 25929 ft | 432 kts | 54° |
| 2026-04-25 10:33 | 38.91596 | 115.95064 | 25355 ft | 429 kts | 54° |
| 2026-04-25 10:33 | 38.93105 | 115.98356 | 24782 ft | 427 kts | 54° |
| 2026-04-25 10:33 | 38.94605 | 116.01635 | 24234 ft | 424 kts | 54° |
| 2026-04-25 10:34 | 38.96096 | 116.04898 | 23677 ft | 422 kts | 55° |
| 2026-04-25 10:34 | 38.97580 | 116.08147 | 23044 ft | 421 kts | 55° |
| 2026-04-25 10:34 | 38.99060 | 116.11371 | 22493 ft | 415 kts | 53° |
| 2026-04-25 10:34 | 39.00874 | 116.14162 | 21945 ft | 402 kts | 36° |
| 2026-04-25 10:35 | 39.03154 | 116.16110 | 21422 ft | 388 kts | 19° |
| 2026-04-25 10:35 | 39.05689 | 116.17061 | 20891 ft | 374 kts | 2° |
| 2026-04-25 10:35 | 39.08243 | 116.17032 | 20395 ft | 363 kts | 348° |
| 2026-04-25 10:35 | 39.10725 | 116.16571 | 19892 ft | 359 kts | 348° |
| 2026-04-25 10:36 | 39.13193 | 116.16163 | 19410 ft | 356 kts | 349° |
| 2026-04-25 10:36 | 39.15644 | 116.15784 | 18913 ft | 354 kts | 349° |
| 2026-04-25 10:36 | 39.18082 | 116.15414 | 18425 ft | 351 kts | 349° |
| 2026-04-25 10:36 | 39.20501 | 116.15048 | 17904 ft | 349 kts | 349° |
| 2026-04-25 10:37 | 39.22903 | 116.14682 | 17402 ft | 345 kts | 349° |
| 2026-04-25 10:37 | 39.25275 | 116.14321 | 16922 ft | 341 kts | 349° |
| 2026-04-25 10:37 | 39.27622 | 116.13961 | 16444 ft | 338 kts | 349° |
| 2026-04-25 10:37 | 39.29947 | 116.13605 | 15961 ft | 335 kts | 349° |
| 2026-04-25 10:38 | 39.31476 | 116.13370 | 15654 ft | 333 kts | 349° |
| 2026-04-25 10:38 | 39.33772 | 116.13017 | 15182 ft | 331 kts | 349° |
| 2026-04-25 10:38 | 39.36779 | 116.12555 | 14567 ft | 328 kts | 349° |
| 2026-04-25 10:38 | 39.39046 | 116.12206 | 14120 ft | 327 kts | 349° |
| 2026-04-25 10:39 | 39.41297 | 116.11859 | 13644 ft | 325 kts | 350° |
| 2026-04-25 10:39 | 39.43539 | 116.11513 | 13159 ft | 323 kts | 350° |
| 2026-04-25 10:39 | 39.45762 | 116.11171 | 12712 ft | 321 kts | 350° |
| 2026-04-25 10:39 | 39.47970 | 116.10830 | 12255 ft | 319 kts | 350° |
| 2026-04-25 10:40 | 39.49457 | 116.10601 | 11955 ft | 318 kts | 350° |
| 2026-04-25 10:40 | 39.51647 | 116.10265 | 11502 ft | 317 kts | 350° |
| 2026-04-25 10:40 | 39.53831 | 116.09932 | 11059 ft | 315 kts | 350° |
| 2026-04-25 10:40 | 39.56003 | 116.09601 | 10623 ft | 314 kts | 350° |
| 2026-04-25 10:41 | 39.58199 | 116.09264 | 10440 ft | 320 kts | 349° |
| 2026-04-25 10:41 | 39.60401 | 116.08926 | 10392 ft | 315 kts | 349° |
| 2026-04-25 10:41 | 39.62517 | 116.08607 | 10311 ft | 305 kts | 349° |
| 2026-04-25 10:41 | 39.64607 | 116.08292 | 10199 ft | 292 kts | 349° |
| 2026-04-25 10:42 | 39.66587 | 116.07991 | 9827 ft | 290 kts | 349° |
| 2026-04-25 10:42 | 39.68556 | 116.07688 | 9552 ft | 284 kts | 349° |
| 2026-04-25 10:42 | 39.70500 | 116.07389 | 9258 ft | 279 kts | 349° |
| 2026-04-25 10:42 | 39.72409 | 116.07104 | 8967 ft | 274 kts | 352° |
| 2026-04-25 10:43 | 39.74293 | 116.07441 | 8667 ft | 278 kts | 19° |
| 2026-04-25 10:43 | 39.75890 | 116.08847 | 8377 ft | 281 kts | 45° |
| 2026-04-25 10:43 | 39.76865 | 116.11059 | 8097 ft | 288 kts | 73° |
| 2026-04-25 10:43 | 39.77192 | 116.13662 | 7825 ft | 293 kts | 84° |
| 2026-04-25 10:44 | 39.77374 | 116.16262 | 7643 ft | 286 kts | 85° |
| 2026-04-25 10:44 | 39.77549 | 116.18755 | 7530 ft | 280 kts | 84° |
| 2026-04-25 10:44 | 39.77751 | 116.21282 | 7411 ft | 282 kts | 83° |
| 2026-04-25 10:44 | 39.77972 | 116.23814 | 7264 ft | 284 kts | 83° |
| 2026-04-25 10:45 | 39.78199 | 116.26382 | 7079 ft | 283 kts | 85° |
| 2026-04-25 10:45 | 39.78420 | 116.28881 | 6924 ft | 276 kts | 84° |
| 2026-04-25 10:45 | 39.78582 | 116.31353 | 6627 ft | 273 kts | 96° |
| 2026-04-25 10:45 | 39.78072 | 116.33656 | 6408 ft | 260 kts | 125° |
| 2026-04-25 10:46 | 39.76887 | 116.35314 | 5870 ft | 246 kts | 155° |
| 2026-04-25 10:46 | 39.75322 | 116.35954 | 5538 ft | 231 kts | 182° |
| 2026-04-25 10:46 | 39.73776 | 116.35924 | 5438 ft | 218 kts | 188° |
| 2026-04-25 10:46 | 39.72323 | 116.35849 | 5328 ft | 201 kts | 186° |
| 2026-04-25 10:47 | 39.70969 | 116.35869 | 5152 ft | 186 kts | 184° |
| 2026-04-25 10:47 | 39.69704 | 116.35971 | 4782 ft | 181 kts | 181° |
| 2026-04-25 10:47 | 39.68499 | 116.36122 | 4420 ft | 167 kts | 180° |
| 2026-04-25 10:47 | 39.67389 | 116.36287 | 3929 ft | 159 kts | 179° |
| 2026-04-25 10:48 | 39.66312 | 116.36455 | 3442 ft | 151 kts | 179° |
| 2026-04-25 10:48 | 39.65287 | 116.36619 | 2985 ft | 141 kts | 180° |
| 2026-04-25 10:48 | 39.64363 | 116.36769 | 2507 ft | 128 kts | 180° |
| 2026-04-25 10:48 | 39.63515 | 116.36883 | 2408 ft | 123 kts | 182° |
| 2026-04-25 10:49 | 39.62672 | 116.36981 | 2249 ft | 125 kts | 180° |
| 2026-04-25 10:49 | 39.61812 | 116.37128 | 2085 ft | 124 kts | 180° |
| 2026-04-25 10:49 | 39.60963 | 116.37255 | 1924 ft | 124 kts | 179° |
| 2026-04-25 10:49 | 39.60111 | 116.37395 | 1768 ft | 123 kts | 179° |
| 2026-04-25 10:50 | 39.59254 | 116.37528 | 1613 ft | 126 kts | 179° |
| 2026-04-25 10:50 | 39.58382 | 116.37668 | 1443 ft | 130 kts | 178° |
| 2026-04-25 10:50 | 39.57498 | 116.37811 | 1274 ft | 126 kts | 178° |
| 2026-04-25 10:50 | 39.56635 | 116.37948 | 1109 ft | 124 kts | 178° |
| 2026-04-25 10:51 | 39.55694 | 116.38085 | 926 ft | 150 kts | 179° |
| 2026-04-25 10:51 | 39.54682 | 116.38252 | 730 ft | 141 kts | 177° |
| 2026-04-25 10:51 | 39.53731 | 116.38414 | 547 ft | 135 kts | 176° |
| 2026-04-25 10:51 | 39.52811 | 116.38552 | 373 ft | 132 kts | 174° |
| 2026-04-25 10:52 | 39.51889 | 116.38716 | 204 ft | 133 kts | 175° |
| 2026-04-25 10:52 | 39.51011 | 116.38874 | 104 ft | 112 kts | 172° |
| 2026-04-25 10:52 | 39.50396 | 116.38940 | 100 ft | 71 kts | 172° |
| 2026-04-25 10:52 | 39.50054 | 116.38997 | 100 ft | 21 kts | 173° |
| 2026-04-25 10:53 | 39.49925 | 116.39017 | 105 ft | 17 kts | 173° |
| 2026-04-25 10:53 | 39.49814 | 116.39036 | 103 ft | 16 kts | 168° |
| 2026-04-25 10:53 | 39.49718 | 116.39093 | 105 ft | 15 kts | 152° |
| 2026-04-25 10:53 | 39.49619 | 116.39165 | 103 ft | 18 kts | 146° |
| 2026-04-25 10:54 | 39.49561 | 116.39215 | 99 ft | 3 kts | 146° |
| 2026-04-25 10:54 | 39.49540 | 116.39234 | 98 ft | 8 kts | 146° |
| 2026-04-25 10:54 | 39.49529 | 116.39286 | 98 ft | 4 kts | 37° |
| 2026-04-25 10:54 | 39.49575 | 116.39298 | 95 ft | 9 kts | 352° |
| 2026-04-25 10:55 | 39.49659 | 116.39284 | 96 ft | 15 kts | 352° |
| 2026-04-25 10:55 | 39.49778 | 116.39265 | 94 ft | 20 kts | 353° |
| 2026-04-25 10:55 | 39.49921 | 116.39243 | 94 ft | 13 kts | 353° |
| 2026-04-25 10:55 | 39.50013 | 116.39228 | 97 ft | 16 kts | 353° |
| 2026-04-25 10:56 | 39.50138 | 116.39208 | 95 ft | 20 kts | 353° |
| 2026-04-25 10:56 | 39.50291 | 116.39183 | 94 ft | 22 kts | 353° |
| 2026-04-25 10:56 | 39.50448 | 116.39158 | 94 ft | 19 kts | 353° |
| 2026-04-25 10:56 | 39.50572 | 116.39139 | 94 ft | 17 kts | 353° |
| 2026-04-25 10:57 | 39.50620 | 116.39131 | 94 ft | 2 kts | 353° |
| 2026-04-25 10:57 | 39.50660 | 116.39124 | 95 ft | 9 kts | 353° |
| 2026-04-25 10:57 | 39.50683 | 116.39121 | 93 ft | 2 kts | 353° |
| 2026-04-25 10:57 | 39.50703 | 116.39117 | 94 ft | 0 kts | 353° |
| 2026-04-25 10:59 | 39.50708 | 116.39117 | 94 ft | 3 kts | 353° |
| 2026-04-25 11:00 | 39.50749 | 116.39110 | 96 ft | 9 kts | 353° |
| 2026-04-25 11:00 | 39.50832 | 116.39097 | 95 ft | 15 kts | 354° |
| 2026-04-25 11:00 | 39.50950 | 116.39097 | 93 ft | 19 kts | 15° |
| 2026-04-25 11:00 | 39.51041 | 116.39183 | 94 ft | 14 kts | 82° |
| 2026-04-25 11:01 | 39.51054 | 116.39329 | 94 ft | 18 kts | 82° |
| 2026-04-25 11:01 | 39.51071 | 116.39505 | 94 ft | 21 kts | 84° |
| 2026-04-25 11:01 | 39.51088 | 116.39685 | 101 ft | 20 kts | 83° |
| 2026-04-25 11:01 | 39.51105 | 116.39865 | 95 ft | 7 kts | 83° |
| 2026-04-25 11:02 | 39.51095 | 116.39929 | 94 ft | 8 kts | 143° |
| 2026-04-25 11:02 | 39.51030 | 116.39960 | 95 ft | 11 kts | 172° |
| 2026-04-25 11:02 | 39.51003 | 116.39967 | 96 ft | 4 kts | 163° |
| 2026-04-25 11:02 | 39.50964 | 116.39977 | 94 ft | 8 kts | 172° |
| 2026-04-25 11:03 | 39.50921 | 116.40013 | 95 ft | 8 kts | 109° |
| 2026-04-25 11:03 | 39.50891 | 116.40083 | 92 ft | 10 kts | 154° |
| 2026-04-25 11:03 | 39.50855 | 116.40147 | 93 ft | 10 kts | 91° |
| 2026-04-25 11:03 | 39.50836 | 116.40200 | 93 ft | 8 kts | 143° |
| 2026-04-25 11:04 | 39.50813 | 116.40221 | 94 ft | 0 kts | 150° |
| 2026-04-25 11:04 | 39.50809 | 116.40224 | 92 ft | 1 kts | 163° |
| 2026-04-25 11:04 | 39.50807 | 116.40224 | 92 ft | 0 kts | 171° |
| 2026-04-25 11:05 | 39.50805 | 116.40225 | 93 ft | 2 kts | 173° |
| 2026-04-25 11:05 | 39.50747 | 116.40226 | 94 ft | 18 kts | 171° |
| 2026-04-25 11:05 | 39.50711 | 116.40243 | 92 ft | 3 kts | 152° |
| 2026-04-25 11:05 | 39.50679 | 116.40271 | 95 ft | 7 kts | 143° |
| 2026-04-25 11:06 | 39.50646 | 116.40302 | 93 ft | 6 kts | 137° |
| 2026-04-25 11:06 | 39.50639 | 116.40346 | 93 ft | 7 kts | 68° |
| 2026-04-25 11:06 | 39.50658 | 116.40390 | 93 ft | 1 kts | 56° |
| 2026-04-25 11:06 | 39.50669 | 116.40412 | 91 ft | 4 kts | 56° |
| 2026-04-25 11:07 | 39.50675 | 116.40425 | 91 ft | 1 kts | 56° |
| 2026-04-25 11:07 | 39.50676 | 116.40425 | 92 ft | 0 kts | 56° |
| 2026-04-25 11:14 | 39.56352 | 116.37992 | 1047 ft | 126 kts | 178° |
| 2026-04-25 11:14 | 39.55689 | 116.38086 | 918 ft | 150 kts | 179° |
| 2026-04-25 11:14 | 39.50676 | 116.40425 | 94 ft | 1 kts | 56° |